createdAt,value
2019-01-21T00:00:56.512Z,96.20
2019-01-21T00:03:25.884Z,117.07
2019-01-21T00:05:55.276Z,120.73
2019-01-21T00:08:24.641Z,93.33
2019-01-21T00:10:53.985Z,89.47
2019-01-21T00:13:23.336Z,87.43
2019-01-21T00:15:52.701Z,84.63
2019-01-21T00:18:22.077Z,92.73
2019-01-21T00:20:51.400Z,84.23
2019-01-21T00:23:20.750Z,88.37
2019-01-21T00:25:50.197Z,85.17
2019-01-21T00:28:20.152Z,85.60
2019-01-21T00:30:49.737Z,84.27
2019-01-21T00:33:19.241Z,89.70
2019-01-21T00:35:48.576Z,84.23
2019-01-21T00:38:18.027Z,77.63
2019-01-21T00:40:47.386Z,92.57
2019-01-21T00:43:16.746Z,123.27
2019-01-21T00:45:46.088Z,101.10
2019-01-21T00:48:15.404Z,93.83
2019-01-21T00:50:44.713Z,110.70
2019-01-21T00:53:14.081Z,140.00
2019-01-21T00:55:43.431Z,178.10
2019-01-21T00:58:12.771Z,145.90
2019-01-21T01:00:42.088Z,151.27
2019-01-21T01:03:11.535Z,142.63
2019-01-21T01:05:40.902Z,112.03
2019-01-21T01:08:10.244Z,166.83
2019-01-21T01:10:39.757Z,163.37
2019-01-21T01:13:09.073Z,174.43
2019-01-21T01:15:38.412Z,192.37
2019-01-21T01:18:08.040Z,204.27
2019-01-21T01:20:37.386Z,199.53
2019-01-21T01:23:06.768Z,216.27
2019-01-21T01:25:36.097Z,195.33
2019-01-21T01:28:05.539Z,190.57
2019-01-21T01:30:34.951Z,197.77
2019-01-21T01:33:04.636Z,209.63
2019-01-21T01:35:34.095Z,203.13
2019-01-21T01:38:03.444Z,192.07
2019-01-21T01:40:32.915Z,211.60
2019-01-21T01:43:02.259Z,211.10
2019-01-21T01:45:31.628Z,190.37
2019-01-21T01:48:02.590Z,188.00
2019-01-21T01:50:32.438Z,207.50
2019-01-21T01:53:02.076Z,204.47
2019-01-21T01:55:32.594Z,200.67
2019-01-21T01:58:03.772Z,211.37
2019-01-21T02:00:33.444Z,206.67
2019-01-21T02:03:02.756Z,204.67
2019-01-21T02:05:32.119Z,173.53
2019-01-21T02:08:01.629Z,152.47
2019-01-21T02:10:31.226Z,111.00
2019-01-21T02:13:00.599Z,121.33
2019-01-21T02:15:29.927Z,134.97
2019-01-21T02:17:59.238Z,133.23
2019-01-21T02:20:28.570Z,131.23
2019-01-21T02:23:03.263Z,136.10
2019-01-21T02:25:53.254Z,155.83
2019-01-21T02:28:38.762Z,168.03
2019-01-21T02:31:53.009Z,156.93
2019-01-21T02:34:47.630Z,153.60
2019-01-21T02:38:12.900Z,135.10
2019-01-21T02:41:25.348Z,73.80
2019-01-21T02:44:53.738Z,58.97
2019-01-21T02:47:44.547Z,51.53
2019-01-21T02:51:01.093Z,45.83
2019-01-21T02:54:19.953Z,51.40
2019-01-21T02:57:20.574Z,51.47
2019-01-21T03:00:30.072Z,52.53
2019-01-21T03:03:41.188Z,53.27
2019-01-21T03:06:41.195Z,106.63
2019-01-21T03:09:51.332Z,115.27
2019-01-21T03:12:46.407Z,106.07
2019-01-21T03:15:51.472Z,117.87
2019-01-21T03:18:53.128Z,112.43
2019-01-21T03:22:15.498Z,109.87
2019-01-21T03:25:20.903Z,117.00
2019-01-21T03:28:37.270Z,104.33
2019-01-21T03:31:37.803Z,97.33
2019-01-21T03:34:55.747Z,106.77
2019-01-21T03:37:58.616Z,99.33
2019-01-21T03:40:54.605Z,103.90
2019-01-21T03:43:49.931Z,79.03
2019-01-21T03:46:58.965Z,98.33
2019-01-21T03:50:05.397Z,95.00
2019-01-21T03:53:36.737Z,63.40
2019-01-21T03:56:14.826Z,60.87
2019-01-21T03:59:23.390Z,83.47
2019-01-21T04:02:33.833Z,90.67
2019-01-21T04:05:29.178Z,81.30
2019-01-21T04:08:28.517Z,93.00
2019-01-21T04:11:28.353Z,101.30
2019-01-21T04:14:33.874Z,101.53
2019-01-21T04:17:38.752Z,85.87
2019-01-21T04:20:29.390Z,63.83
2019-01-21T04:23:46.213Z,63.47
2019-01-21T04:27:14.759Z,49.03
2019-01-21T04:30:15.213Z,58.77
2019-01-21T04:33:13.538Z,59.53
2019-01-21T04:35:59.759Z,61.20
2019-01-21T04:38:59.457Z,63.47
2019-01-21T04:41:42.811Z,60.47
2019-01-21T04:44:57.651Z,64.90
2019-01-21T04:48:10.664Z,64.73
2019-01-21T04:51:26.897Z,73.60
2019-01-21T04:54:56.582Z,71.17
2019-01-21T04:58:02.036Z,66.23
2019-01-21T05:01:20.103Z,62.67
2019-01-21T05:04:29.345Z,63.30
2019-01-21T05:07:44.304Z,64.87
2019-01-21T05:10:44.143Z,68.93
2019-01-21T05:13:46.746Z,66.30
2019-01-21T05:16:40.559Z,65.60
2019-01-21T05:19:59.138Z,65.63
2019-01-21T05:22:45.924Z,63.53
2019-01-21T05:25:42.339Z,62.43
2019-01-21T05:28:55.160Z,61.70
2019-01-21T05:31:51.646Z,62.50
2019-01-21T05:34:34.109Z,60.73
2019-01-21T05:37:48.940Z,59.23
2019-01-21T05:41:08.296Z,61.43
2019-01-21T05:44:21.692Z,56.10
2019-01-21T05:47:46.469Z,62.43
2019-01-21T05:50:56.393Z,48.00
2019-01-21T05:53:47.862Z,37.73
2019-01-21T05:57:00.269Z,32.87
2019-01-21T06:00:11.144Z,34.23
2019-01-21T06:03:36.741Z,36.47
2019-01-21T06:06:53.202Z,36.37
2019-01-21T06:10:18.554Z,34.50
2019-01-21T06:13:34.963Z,32.97
2019-01-21T06:16:26.858Z,33.13
2019-01-21T06:19:23.479Z,41.70
2019-01-21T06:22:23.904Z,32.63
2019-01-21T06:25:13.675Z,27.87
2019-01-21T06:28:29.888Z,31.40
2019-01-21T06:31:40.340Z,35.13
2019-01-21T06:34:42.400Z,30.37
2019-01-21T06:37:41.363Z,31.80
2019-01-21T06:41:06.993Z,30.87
2019-01-21T06:44:22.759Z,29.07
2019-01-21T06:47:36.275Z,32.53
2019-01-21T06:50:35.452Z,24.97
2019-01-21T06:53:45.568Z,27.70
2019-01-21T06:56:51.457Z,32.33
2019-01-21T07:00:16.996Z,28.50
2019-01-21T07:03:06.968Z,27.47
2019-01-21T07:06:12.129Z,25.73
2019-01-21T07:09:06.443Z,28.40
2019-01-21T07:12:00.829Z,27.67
2019-01-21T07:15:01.975Z,30.10
2019-01-21T07:18:12.880Z,27.70
2019-01-21T07:21:21.082Z,27.83
2019-01-21T07:24:37.618Z,30.90
2019-01-21T07:27:42.146Z,29.80
2019-01-21T07:30:38.864Z,27.33
2019-01-21T07:33:41.563Z,25.03
2019-01-21T07:36:45.464Z,26.50
2019-01-21T07:39:50.718Z,30.20
2019-01-21T07:43:07.049Z,25.87
2019-01-21T07:45:57.912Z,27.03
2019-01-21T07:49:00.980Z,23.70
2019-01-21T07:52:05.854Z,26.53
2019-01-21T07:55:25.352Z,30.50
2019-01-21T07:58:21.366Z,27.37
2019-01-21T08:01:17.341Z,26.20
2019-01-21T08:04:21.573Z,24.63
2019-01-21T08:07:05.629Z,27.70
2019-01-21T08:10:24.796Z,26.63
2019-01-21T08:13:15.020Z,27.97
2019-01-21T08:16:22.468Z,29.57
2019-01-21T08:19:29.991Z,27.57
2019-01-21T08:22:36.170Z,27.87
2019-01-21T08:25:40.998Z,28.03
2019-01-21T08:28:49.313Z,28.50
2019-01-21T08:31:27.475Z,30.67
2019-01-21T08:34:30.232Z,28.57
2019-01-21T08:37:31.327Z,28.67
2019-01-21T08:40:27.640Z,27.20
2019-01-21T08:43:30.346Z,27.70
2019-01-21T08:46:37.933Z,28.27
2019-01-21T08:49:39.304Z,30.20
2019-01-21T08:53:04.221Z,28.23
2019-01-21T08:56:32.586Z,29.40
2019-01-21T08:59:27.203Z,28.87
2019-01-21T09:02:31.698Z,28.87
2019-01-21T09:05:32.497Z,24.33
2019-01-21T09:09:09.986Z,22.63
2019-01-21T09:12:17.217Z,20.57
2019-01-21T09:15:38.310Z,24.57
2019-01-21T09:18:47.069Z,24.67
2019-01-21T09:22:01.792Z,26.87
2019-01-21T09:25:18.279Z,23.47
2019-01-21T09:28:17.037Z,26.27
2019-01-21T09:31:20.845Z,25.10
2019-01-21T09:34:22.185Z,30.40
2019-01-21T09:37:41.681Z,30.27
2019-01-21T09:40:49.976Z,24.00
2019-01-21T09:44:00.220Z,23.73
2019-01-21T09:46:48.575Z,23.87
2019-01-21T09:49:16.133Z,23.20
2019-01-21T09:51:55.426Z,24.57
2019-01-21T09:54:25.130Z,22.37
2019-01-21T09:56:57.171Z,25.80
2019-01-21T09:59:26.609Z,23.93
2019-01-21T10:01:58.417Z,26.63
2019-01-21T10:04:34.975Z,22.77
2019-01-21T10:07:39.117Z,21.50
2019-01-21T10:10:43.528Z,25.30
2019-01-21T10:13:45.496Z,22.77
2019-01-21T10:16:36.704Z,18.20
2019-01-21T10:19:30.597Z,21.37
2019-01-21T10:22:31.529Z,22.17
2019-01-21T10:25:41.110Z,24.70
2019-01-21T10:28:43.790Z,23.53
2019-01-21T10:31:59.418Z,23.37
2019-01-21T10:35:04.585Z,22.17
2019-01-21T10:38:19.568Z,24.63
2019-01-21T10:41:30.349Z,21.57
2019-01-21T10:44:43.723Z,25.40
2019-01-21T10:47:28.307Z,26.07
2019-01-21T10:50:21.409Z,24.23
2019-01-21T10:53:12.619Z,26.67
2019-01-21T10:56:08.772Z,27.53
2019-01-21T10:58:48.298Z,25.97
2019-01-21T11:02:10.627Z,27.63
2019-01-21T11:05:31.456Z,25.80
2019-01-21T11:08:33.860Z,28.37
2019-01-21T11:11:53.936Z,27.33
2019-01-21T11:15:15.508Z,25.80
2019-01-21T11:17:59.380Z,23.80
2019-01-21T11:21:12.396Z,27.10
2019-01-21T11:24:37.581Z,23.90
2019-01-21T11:27:36.840Z,24.97
2019-01-21T11:31:03.306Z,22.90
2019-01-21T11:33:49.235Z,25.83
2019-01-21T11:37:05.711Z,24.83
2019-01-21T11:40:21.545Z,23.00
2019-01-21T11:43:29.289Z,24.87
2019-01-21T11:46:19.360Z,27.53
2019-01-21T11:49:25.537Z,26.13
2019-01-21T11:52:24.290Z,21.97
2019-01-21T11:55:50.032Z,25.20
2019-01-21T11:58:55.903Z,24.07
2019-01-21T12:02:06.030Z,23.47
2019-01-21T12:05:28.186Z,22.17
2019-01-21T12:08:30.298Z,25.77
2019-01-21T12:11:37.700Z,26.13
2019-01-21T12:14:56.895Z,33.17
2019-01-21T12:17:36.875Z,21.63
2019-01-21T12:20:34.476Z,24.67
2019-01-21T12:23:20.795Z,28.17
2019-01-21T12:25:57.746Z,24.30
2019-01-21T12:28:53.585Z,24.93
2019-01-21T12:31:50.641Z,27.20
2019-01-21T12:34:56.752Z,26.93
2019-01-21T12:38:22.231Z,23.50
2019-01-21T12:41:21.753Z,24.20
2019-01-21T12:44:53.465Z,25.93
2019-01-21T12:47:54.330Z,23.23
2019-01-21T12:51:10.876Z,26.03
2019-01-21T12:54:20.912Z,23.50
2019-01-21T12:57:17.826Z,24.90
2019-01-21T13:00:22.980Z,25.03
2019-01-21T13:03:18.141Z,24.23
2019-01-21T13:06:13.219Z,27.03
2019-01-21T13:09:10.120Z,29.60
2019-01-21T13:12:02.375Z,27.63
2019-01-21T13:15:40.118Z,30.27
2019-01-21T13:19:08.438Z,22.87
2019-01-21T13:22:09.554Z,23.57
2019-01-21T13:25:22.304Z,23.07
2019-01-21T13:28:18.057Z,23.27
2019-01-21T13:31:27.889Z,24.03
2019-01-21T13:34:17.754Z,24.67
2019-01-21T13:37:27.231Z,23.73
2019-01-21T13:40:17.557Z,26.87
2019-01-21T13:43:09.954Z,26.17
2019-01-21T13:46:21.144Z,26.00
2019-01-21T13:49:11.650Z,26.80
2019-01-21T13:52:17.096Z,27.00
2019-01-21T13:55:26.855Z,28.80
2019-01-21T13:58:36.941Z,29.90
2019-01-21T14:01:30.690Z,27.43
2019-01-21T14:04:53.615Z,26.03
2019-01-21T14:07:51.675Z,27.00
2019-01-21T14:11:13.692Z,27.70
2019-01-21T14:14:20.196Z,32.30
2019-01-21T14:17:36.435Z,29.57
2019-01-21T14:20:21.965Z,28.10
2019-01-21T14:23:05.931Z,32.50
2019-01-21T14:26:15.943Z,34.63
2019-01-21T14:29:07.171Z,32.70
2019-01-21T14:32:13.778Z,35.67
2019-01-21T14:35:11.890Z,32.57
2019-01-21T14:38:20.784Z,34.37
2019-01-21T14:41:33.999Z,33.37
2019-01-21T14:44:35.050Z,35.70
2019-01-21T14:48:09.882Z,37.63
2019-01-21T14:51:23.530Z,34.90
2019-01-21T14:54:37.232Z,32.47
2019-01-21T14:57:48.670Z,31.33
2019-01-21T15:00:44.944Z,32.93
2019-01-21T15:03:29.107Z,32.23
2019-01-21T15:06:37.146Z,36.33
2019-01-21T15:09:40.699Z,37.43
2019-01-21T15:12:43.130Z,37.30
2019-01-21T15:15:33.766Z,38.20
2019-01-21T15:18:21.333Z,37.27
2019-01-21T15:21:31.160Z,40.10
2019-01-21T15:24:36.145Z,37.73
2019-01-21T15:27:50.994Z,45.53
2019-01-21T15:30:59.951Z,41.03
2019-01-21T15:33:40.802Z,43.47
2019-01-21T15:36:33.995Z,49.60
2019-01-21T15:39:33.951Z,48.63
2019-01-21T15:42:52.442Z,42.67
2019-01-21T15:46:05.711Z,37.77
2019-01-21T15:48:55.815Z,44.30
2019-01-21T15:51:53.224Z,39.30
2019-01-21T15:55:00.647Z,40.23
2019-01-21T15:58:01.070Z,40.23
2019-01-21T16:00:57.221Z,41.53
2019-01-21T16:03:38.363Z,40.97
2019-01-21T16:06:38.377Z,48.17
2019-01-21T16:09:59.761Z,47.77
2019-01-21T16:13:03.001Z,48.60
2019-01-21T16:16:21.360Z,51.83
2019-01-21T16:19:03.800Z,51.50
2019-01-21T16:22:06.586Z,46.10
2019-01-21T16:25:09.530Z,52.03
2019-01-21T16:28:21.822Z,47.80
2019-01-21T16:31:15.426Z,54.10
2019-01-21T16:34:15.274Z,57.17
2019-01-21T16:37:10.800Z,52.50
2019-01-21T16:40:23.939Z,43.67
2019-01-21T16:42:53.326Z,47.93
2019-01-21T16:45:22.770Z,46.80
2019-01-21T16:47:52.098Z,61.00
2019-01-21T16:50:21.434Z,63.33
2019-01-21T16:52:50.897Z,66.07
2019-01-21T16:55:20.928Z,64.60
2019-01-21T16:57:50.337Z,61.00
2019-01-21T17:00:19.716Z,65.87
2019-01-21T17:02:49.078Z,65.27
2019-01-21T17:05:18.704Z,61.60
2019-01-21T17:07:48.061Z,63.07
2019-01-21T17:10:17.460Z,66.30
2019-01-21T17:12:46.803Z,64.87
2019-01-21T17:15:16.343Z,60.37
2019-01-21T17:17:45.739Z,68.33
2019-01-21T17:20:18.371Z,63.30
2019-01-21T17:22:49.249Z,56.50
2019-01-21T17:25:18.948Z,54.77
2019-01-21T17:27:48.395Z,61.87
2019-01-21T17:30:17.888Z,61.63
2019-01-21T17:32:47.267Z,61.33
2019-01-21T17:35:16.623Z,58.40
2019-01-21T17:37:46.018Z,54.97
2019-01-21T17:40:28.099Z,59.13
2019-01-21T17:42:58.089Z,64.20
2019-01-21T17:45:27.451Z,63.63
2019-01-21T17:47:56.830Z,60.90
2019-01-21T17:50:28.191Z,63.53
2019-01-21T17:53:00.246Z,69.10
2019-01-21T17:55:29.676Z,68.53
2019-01-21T17:57:59.038Z,72.43
2019-01-21T18:00:28.493Z,68.87
2019-01-21T18:02:58.042Z,56.83
2019-01-21T18:05:27.466Z,60.77
2019-01-21T18:07:56.839Z,67.80
2019-01-21T18:10:26.220Z,66.67
2019-01-21T18:12:55.830Z,59.90
2019-01-21T18:15:25.441Z,63.03
2019-01-21T18:17:54.821Z,55.20
2019-01-21T18:20:25.603Z,56.40
2019-01-21T18:22:55.657Z,60.17
2019-01-21T18:25:25.126Z,69.50
2019-01-21T18:27:54.546Z,70.33
2019-01-21T18:30:26.694Z,68.13
2019-01-21T18:32:56.234Z,66.40
2019-01-21T18:35:25.968Z,53.97
2019-01-21T18:37:55.404Z,56.10
2019-01-21T18:40:24.847Z,53.70
2019-01-21T18:42:54.172Z,51.73
2019-01-21T18:45:28.280Z,55.63
2019-01-21T18:47:57.678Z,56.13
2019-01-21T18:50:27.639Z,68.23
2019-01-21T18:52:57.022Z,69.47
2019-01-21T18:55:26.574Z,55.93
2019-01-21T18:57:57.443Z,52.87
2019-01-21T19:00:27.828Z,58.77
2019-01-21T19:02:57.446Z,53.53
2019-01-21T19:05:27.271Z,54.10
2019-01-21T19:07:56.627Z,61.30
2019-01-21T19:10:25.993Z,65.93
2019-01-21T19:12:55.393Z,62.53
2019-01-21T19:15:27.488Z,64.93
2019-01-21T19:17:56.900Z,62.77
2019-01-21T19:20:26.596Z,51.77
2019-01-21T19:22:55.946Z,49.07
2019-01-21T19:25:27.067Z,54.73
2019-01-21T19:27:56.500Z,54.80
2019-01-21T19:30:27.420Z,56.43
2019-01-21T19:32:58.407Z,64.20
2019-01-21T19:35:33.480Z,66.27
2019-01-21T19:38:02.835Z,62.10
2019-01-21T19:40:32.299Z,64.10
2019-01-21T19:43:01.691Z,70.87
2019-01-21T19:45:31.086Z,66.80
2019-01-21T19:48:01.419Z,63.13
2019-01-21T19:50:31.520Z,67.93
2019-01-21T19:53:02.191Z,75.73
2019-01-21T19:55:42.901Z,88.97
2019-01-21T19:58:13.134Z,93.80
2019-01-21T20:00:43.514Z,68.17
2019-01-21T20:03:12.929Z,78.73
2019-01-21T20:05:42.905Z,74.47
2019-01-21T20:08:13.478Z,76.37
2019-01-21T20:10:42.870Z,89.07
2019-01-21T20:13:12.277Z,78.23
2019-01-21T20:15:41.654Z,81.97
2019-01-21T20:18:12.286Z,74.07
2019-01-21T20:20:45.853Z,77.37
2019-01-21T20:23:15.240Z,79.83
2019-01-21T20:25:45.070Z,81.37
2019-01-21T20:28:14.559Z,79.10
2019-01-21T20:30:45.895Z,72.20
2019-01-21T20:33:15.291Z,67.60
2019-01-21T20:35:44.714Z,64.53
2019-01-21T20:38:15.983Z,62.50
2019-01-21T20:40:50.386Z,66.87
2019-01-21T20:43:19.823Z,62.90
2019-01-21T20:45:49.330Z,60.90
2019-01-21T20:48:18.882Z,64.60
2019-01-21T20:50:50.949Z,63.27
2019-01-21T20:53:20.423Z,56.20
2019-01-21T20:55:50.001Z,57.13
2019-01-21T20:58:19.553Z,62.07
2019-01-21T21:00:49.250Z,65.37
2019-01-21T21:03:18.879Z,66.87
2019-01-21T21:05:48.216Z,65.00
2019-01-21T21:08:18.880Z,55.97
2019-01-21T21:10:48.446Z,60.53
2019-01-21T21:13:18.024Z,66.23
2019-01-21T21:15:47.815Z,61.57
2019-01-21T21:18:17.680Z,58.23
2019-01-21T21:20:47.028Z,57.60
2019-01-21T21:23:16.341Z,60.93
2019-01-21T21:25:46.052Z,65.03
2019-01-21T21:28:15.607Z,59.43
2019-01-21T21:30:45.103Z,63.10
2019-01-21T21:33:14.492Z,61.53
2019-01-21T21:35:43.788Z,60.33
2019-01-21T21:38:13.183Z,56.50
2019-01-21T21:40:42.497Z,62.63
2019-01-21T21:43:11.900Z,65.07
2019-01-21T21:45:41.270Z,67.07
2019-01-21T21:48:10.623Z,69.77
2019-01-21T21:50:39.984Z,65.60
2019-01-21T21:53:09.329Z,71.30
2019-01-21T21:55:38.813Z,65.77
2019-01-21T21:58:08.462Z,71.70
2019-01-21T22:00:37.956Z,70.97
2019-01-21T22:03:07.440Z,72.70
2019-01-21T22:05:36.866Z,69.57
2019-01-21T22:08:09.133Z,65.87
2019-01-21T22:10:38.506Z,69.53
2019-01-21T22:13:07.855Z,66.67
2019-01-21T22:15:37.410Z,73.00
2019-01-21T22:18:06.824Z,76.27
2019-01-21T22:20:36.219Z,76.80
2019-01-21T22:23:05.779Z,80.87
2019-01-21T22:25:35.124Z,79.37
2019-01-21T22:28:04.499Z,69.97
2019-01-21T22:30:33.858Z,69.17
2019-01-21T22:33:03.172Z,73.73
2019-01-21T22:35:32.888Z,73.73
2019-01-21T22:38:02.242Z,74.70
2019-01-21T22:40:31.623Z,73.47
2019-01-21T22:43:00.976Z,66.00
2019-01-21T22:45:30.326Z,59.20
2019-01-21T22:47:59.934Z,62.30
2019-01-21T22:50:29.331Z,67.33
2019-01-21T22:52:58.684Z,58.27
2019-01-21T22:55:28.043Z,66.70
2019-01-21T22:57:57.362Z,66.43
2019-01-21T23:00:44.593Z,63.43
2019-01-21T23:03:14.570Z,61.33
2019-01-21T23:05:43.928Z,61.57
2019-01-21T23:08:13.316Z,60.77
2019-01-21T23:10:42.683Z,54.00
2019-01-21T23:13:12.016Z,49.80
2019-01-21T23:15:41.418Z,45.83
2019-01-21T23:18:10.851Z,43.57
2019-01-21T23:20:40.150Z,44.83
2019-01-21T23:23:09.760Z,38.57
2019-01-21T23:25:39.172Z,40.47
2019-01-21T23:28:08.520Z,40.67
2019-01-21T23:30:37.870Z,46.40
2019-01-21T23:33:07.232Z,39.43
2019-01-21T23:35:36.862Z,36.17
2019-01-21T23:38:06.180Z,37.53
2019-01-21T23:40:35.526Z,30.60
2019-01-21T23:43:04.881Z,36.77
2019-01-21T23:45:34.325Z,27.23
2019-01-21T23:48:03.699Z,32.43
2019-01-21T23:50:33.018Z,30.57
2019-01-21T23:53:02.380Z,36.23
2019-01-21T23:55:31.837Z,38.97
2019-01-21T23:58:01.188Z,37.13
